sensor_id;sensor_type;location;lat;lon;timestamp;pressure;altitude;pressure_sealevel;temperature;humidity
3598;BME280;1813;52.016;8.714;2023-01-25T00:02:01;-16261.94;;;-139.71;70.55
3598;BME280;1813;52.016;8.714;2023-01-25T00:04:38;-16261.94;;;-139.71;70.55
3598;BME280;1813;52.016;8.714;2023-01-25T00:07:11;-16261.94;;;-139.71;70.73
3598;BME280;1813;52.016;8.714;2023-01-25T00:09:45;-16261.94;;;-139.71;70.77
3598;BME280;1813;52.016;8.714;2023-01-25T00:12:19;-16261.94;;;-139.71;70.70
3598;BME280;1813;52.016;8.714;2023-01-25T00:14:52;-16261.94;;;-139.71;70.46
3598;BME280;1813;52.016;8.714;2023-01-25T00:17:26;-16261.94;;;-139.71;70.50
3598;BME280;1813;52.016;8.714;2023-01-25T00:20:03;-16261.94;;;-139.71;70.48
3598;BME280;1813;52.016;8.714;2023-01-25T00:22:37;-16261.94;;;-139.71;70.62
3598;BME280;1813;52.016;8.714;2023-01-25T00:25:10;-16261.94;;;-139.71;70.70
3598;BME280;1813;52.016;8.714;2023-01-25T00:27:44;-16261.94;;;-139.71;70.91
3598;BME280;1813;52.016;8.714;2023-01-25T00:30:20;-16261.94;;;-139.71;71.19
3598;BME280;1813;52.016;8.714;2023-01-25T00:33:01;-16261.94;;;-139.71;71.06
3598;BME280;1813;52.016;8.714;2023-01-25T00:35:42;-16261.94;;;-139.71;71.18
3598;BME280;1813;52.016;8.714;2023-01-25T00:38:27;-16261.94;;;-139.71;71.19
3598;BME280;1813;52.016;8.714;2023-01-25T00:41:02;-16261.94;;;-139.71;71.34
3598;BME280;1813;52.016;8.714;2023-01-25T00:43:38;-16261.94;;;-139.71;71.27
3598;BME280;1813;52.016;8.714;2023-01-25T00:46:14;-16261.94;;;-139.71;71.27
3598;BME280;1813;52.016;8.714;2023-01-25T00:48:48;-16261.94;;;-139.71;71.19
3598;BME280;1813;52.016;8.714;2023-01-25T00:51:28;-16261.94;;;-139.71;71.29
3598;BME280;1813;52.016;8.714;2023-01-25T00:54:02;-16261.94;;;-139.71;71.36
3598;BME280;1813;52.016;8.714;2023-01-25T00:56:35;-16261.94;;;-139.71;71.55
3598;BME280;1813;52.016;8.714;2023-01-25T00:59:10;-16261.94;;;-139.71;71.64
3598;BME280;1813;52.016;8.714;2023-01-25T01:01:44;-16261.94;;;-139.71;71.95
3598;BME280;1813;52.016;8.714;2023-01-25T01:04:18;-16261.94;;;-139.71;72.10
3598;BME280;1813;52.016;8.714;2023-01-25T01:06:57;-16261.94;;;-139.71;72.13
3598;BME280;1813;52.016;8.714;2023-01-25T01:09:31;-16261.94;;;-139.71;72.32
3598;BME280;1813;52.016;8.714;2023-01-25T01:12:05;-16261.94;;;-139.71;72.50
3598;BME280;1813;52.016;8.714;2023-01-25T01:14:38;-16261.94;;;-139.71;72.67
3598;BME280;1813;52.016;8.714;2023-01-25T01:17:13;-16261.94;;;-139.71;72.75
3598;BME280;1813;52.016;8.714;2023-01-25T01:19:47;-16261.94;;;-139.71;72.85
3598;BME280;1813;52.016;8.714;2023-01-25T01:22:23;-16261.94;;;-139.71;72.85
3598;BME280;1813;52.016;8.714;2023-01-25T01:24:57;-16261.94;;;-139.71;73.11
3598;BME280;1813;52.016;8.714;2023-01-25T01:27:31;-16261.94;;;-139.71;73.18
3598;BME280;1813;52.016;8.714;2023-01-25T01:30:06;-16261.94;;;-139.71;73.39
3598;BME280;1813;52.016;8.714;2023-01-25T01:32:40;-16261.94;;;-139.71;73.53
3598;BME280;1813;52.016;8.714;2023-01-25T01:35:14;-16261.94;;;-139.71;73.76
3598;BME280;1813;52.016;8.714;2023-01-25T01:37:50;-16261.94;;;-139.71;73.85
3598;BME280;1813;52.016;8.714;2023-01-25T01:40:24;-16261.94;;;-139.71;74.03
3598;BME280;1813;52.016;8.714;2023-01-25T01:42:59;-16261.94;;;-139.71;74.07
3598;BME280;1813;52.016;8.714;2023-01-25T01:45:51;-16261.94;;;-139.71;74.00
3598;BME280;1813;52.016;8.714;2023-01-25T01:48:35;-16261.94;;;-139.71;74.20
3598;BME280;1813;52.016;8.714;2023-01-25T01:51:16;-16261.94;;;-139.71;74.57
3598;BME280;1813;52.016;8.714;2023-01-25T01:53:57;-16261.94;;;-139.71;74.90
3598;BME280;1813;52.016;8.714;2023-01-25T01:56:36;-16261.94;;;-139.71;75.10
3598;BME280;1813;52.016;8.714;2023-01-25T01:59:13;-16261.94;;;-139.71;75.44
3598;BME280;1813;52.016;8.714;2023-01-25T02:01:46;-16261.94;;;-139.71;75.54
3598;BME280;1813;52.016;8.714;2023-01-25T02:04:21;-16261.94;;;-139.71;75.70
3598;BME280;1813;52.016;8.714;2023-01-25T02:07:00;-16261.94;;;-139.71;75.85
3598;BME280;1813;52.016;8.714;2023-01-25T02:09:39;-16261.94;;;-139.71;76.01
3598;BME280;1813;52.016;8.714;2023-01-25T02:12:14;-16261.94;;;-139.71;76.13
3598;BME280;1813;52.016;8.714;2023-01-25T02:14:49;-16261.94;;;-139.71;76.20
3598;BME280;1813;52.016;8.714;2023-01-25T02:17:26;-16261.94;;;-139.71;76.17
3598;BME280;1813;52.016;8.714;2023-01-25T02:20:08;-16261.94;;;-139.71;76.10
3598;BME280;1813;52.016;8.714;2023-01-25T02:22:53;-16261.94;;;-139.71;76.01
3598;BME280;1813;52.016;8.714;2023-01-25T02:25:31;-16261.94;;;-139.71;76.11
3598;BME280;1813;52.016;8.714;2023-01-25T02:28:10;-16261.94;;;-139.71;76.11
3598;BME280;1813;52.016;8.714;2023-01-25T02:30:47;-16261.94;;;-139.71;76.25
3598;BME280;1813;52.016;8.714;2023-01-25T02:33:21;-16261.94;;;-139.71;76.52
3598;BME280;1813;52.016;8.714;2023-01-25T02:35:59;-16261.94;;;-139.71;76.71
3598;BME280;1813;52.016;8.714;2023-01-25T02:38:36;-16261.94;;;-139.71;76.92
3598;BME280;1813;52.016;8.714;2023-01-25T02:41:17;-16261.94;;;-139.71;77.15
3598;BME280;1813;52.016;8.714;2023-01-25T02:43:53;-16261.94;;;-139.71;77.49
3598;BME280;1813;52.016;8.714;2023-01-25T02:46:29;-16261.94;;;-139.71;77.62
3598;BME280;1813;52.016;8.714;2023-01-25T02:49:05;-16261.94;;;-139.71;77.64
3598;BME280;1813;52.016;8.714;2023-01-25T02:51:42;-16261.94;;;-139.71;77.59
3598;BME280;1813;52.016;8.714;2023-01-25T02:54:18;-16261.94;;;-139.71;77.56
3598;BME280;1813;52.016;8.714;2023-01-25T02:56:55;-16261.94;;;-139.71;77.62
3598;BME280;1813;52.016;8.714;2023-01-25T02:59:32;-16261.94;;;-139.71;77.61
3598;BME280;1813;52.016;8.714;2023-01-25T03:02:06;-16261.94;;;-139.71;77.77
3598;BME280;1813;52.016;8.714;2023-01-25T03:04:40;-16261.94;;;-139.71;77.72
3598;BME280;1813;52.016;8.714;2023-01-25T03:07:14;-16261.94;;;-139.71;77.82
3598;BME280;1813;52.016;8.714;2023-01-25T03:09:48;-16261.94;;;-139.71;78.04
3598;BME280;1813;52.016;8.714;2023-01-25T03:12:25;-16261.94;;;-139.71;78.17
3598;BME280;1813;52.016;8.714;2023-01-25T03:14:59;-16261.94;;;-139.71;78.58
3598;BME280;1813;52.016;8.714;2023-01-25T03:17:33;-16261.94;;;-139.71;78.86
3598;BME280;1813;52.016;8.714;2023-01-25T03:20:08;-16261.94;;;-139.71;78.76
3598;BME280;1813;52.016;8.714;2023-01-25T03:22:43;-16261.94;;;-139.71;78.85
3598;BME280;1813;52.016;8.714;2023-01-25T03:25:17;-16261.94;;;-139.71;78.88
3598;BME280;1813;52.016;8.714;2023-01-25T03:28:03;-16261.94;;;-139.71;78.91
3598;BME280;1813;52.016;8.714;2023-01-25T03:30:37;-16261.94;;;-139.71;79.06
3598;BME280;1813;52.016;8.714;2023-01-25T03:33:10;-16261.94;;;-139.71;79.24
3598;BME280;1813;52.016;8.714;2023-01-25T03:35:44;-16261.94;;;-139.71;79.26
3598;BME280;1813;52.016;8.714;2023-01-25T03:38:18;-16261.94;;;-139.71;79.34
3598;BME280;1813;52.016;8.714;2023-01-25T03:40:53;-16261.94;;;-139.71;79.38
3598;BME280;1813;52.016;8.714;2023-01-25T03:43:30;-16261.94;;;-139.71;79.38
3598;BME280;1813;52.016;8.714;2023-01-25T03:46:05;-16261.94;;;-139.71;79.46
3598;BME280;1813;52.016;8.714;2023-01-25T03:48:39;-16261.94;;;-139.71;79.49
3598;BME280;1813;52.016;8.714;2023-01-25T03:51:13;-16261.94;;;-139.71;79.68
3598;BME280;1813;52.016;8.714;2023-01-25T03:53:47;-16261.94;;;-139.71;79.67
3598;BME280;1813;52.016;8.714;2023-01-25T03:56:22;-16261.94;;;-139.71;79.89
3598;BME280;1813;52.016;8.714;2023-01-25T03:59:07;-16261.94;;;-139.71;79.99
3598;BME280;1813;52.016;8.714;2023-01-25T04:01:41;-16261.94;;;-139.71;80.22
3598;BME280;1813;52.016;8.714;2023-01-25T04:04:15;-16261.94;;;-139.71;80.30
3598;BME280;1813;52.016;8.714;2023-01-25T04:06:50;-16261.94;;;-139.71;80.25
3598;BME280;1813;52.016;8.714;2023-01-25T04:09:25;-16261.94;;;-139.71;80.30
3598;BME280;1813;52.016;8.714;2023-01-25T04:12:01;-16261.94;;;-139.71;80.09
3598;BME280;1813;52.016;8.714;2023-01-25T04:14:40;-16261.94;;;-139.71;79.77
3598;BME280;1813;52.016;8.714;2023-01-25T04:17:14;-16261.94;;;-139.71;79.93
3598;BME280;1813;52.016;8.714;2023-01-25T04:20:07;-16261.94;;;-139.71;79.87
3598;BME280;1813;52.016;8.714;2023-01-25T04:22:44;-16261.94;;;-139.71;79.51
3598;BME280;1813;52.016;8.714;2023-01-25T04:25:19;-16261.94;;;-139.71;79.33
3598;BME280;1813;52.016;8.714;2023-01-25T04:27:56;-16261.94;;;-139.71;79.23
3598;BME280;1813;52.016;8.714;2023-01-25T04:30:33;-16261.94;;;-139.71;78.94
3598;BME280;1813;52.016;8.714;2023-01-25T04:33:07;-16261.94;;;-139.71;79.09
3598;BME280;1813;52.016;8.714;2023-01-25T04:35:42;-16261.94;;;-139.71;79.36
3598;BME280;1813;52.016;8.714;2023-01-25T04:38:18;-16261.94;;;-139.71;79.50
3598;BME280;1813;52.016;8.714;2023-01-25T04:40:53;-16261.94;;;-139.71;79.38
3598;BME280;1813;52.016;8.714;2023-01-25T04:43:27;-16261.94;;;-139.71;79.53
3598;BME280;1813;52.016;8.714;2023-01-25T04:46:12;-16261.94;;;-139.71;79.68
3598;BME280;1813;52.016;8.714;2023-01-25T04:48:46;-16261.94;;;-139.71;79.70
3598;BME280;1813;52.016;8.714;2023-01-25T04:51:21;-16261.94;;;-139.71;79.84
3598;BME280;1813;52.016;8.714;2023-01-25T04:53:55;-16261.94;;;-139.71;80.12
3598;BME280;1813;52.016;8.714;2023-01-25T04:56:29;-16261.94;;;-139.71;80.25
3598;BME280;1813;52.016;8.714;2023-01-25T04:59:03;-16261.94;;;-139.71;80.37
3598;BME280;1813;52.016;8.714;2023-01-25T05:01:40;-16261.94;;;-139.71;80.29
3598;BME280;1813;52.016;8.714;2023-01-25T05:04:13;-16261.94;;;-139.71;80.21
3598;BME280;1813;52.016;8.714;2023-01-25T05:06:50;-16261.94;;;-139.71;80.14
3598;BME280;1813;52.016;8.714;2023-01-25T05:09:23;-16261.94;;;-139.71;80.23
3598;BME280;1813;52.016;8.714;2023-01-25T05:11:58;-16261.94;;;-139.71;79.90
3598;BME280;1813;52.016;8.714;2023-01-25T05:14:40;-16261.94;;;-139.71;79.79
3598;BME280;1813;52.016;8.714;2023-01-25T05:17:17;-16261.94;;;-139.71;79.72
3598;BME280;1813;52.016;8.714;2023-01-25T05:19:51;-16261.94;;;-139.71;79.90
3598;BME280;1813;52.016;8.714;2023-01-25T05:22:27;-16261.94;;;-139.71;80.01
3598;BME280;1813;52.016;8.714;2023-01-25T05:25:01;-16261.94;;;-139.71;80.25
3598;BME280;1813;52.016;8.714;2023-01-25T05:27:55;-16261.94;;;-139.71;80.67
3598;BME280;1813;52.016;8.714;2023-01-25T05:30:49;-16261.94;;;-139.71;80.81
3598;BME280;1813;52.016;8.714;2023-01-25T05:33:31;-16261.94;;;-139.71;80.88
3598;BME280;1813;52.016;8.714;2023-01-25T05:36:07;-16261.94;;;-139.71;81.00
3598;BME280;1813;52.016;8.714;2023-01-25T05:38:42;-16261.94;;;-139.71;80.89
3598;BME280;1813;52.016;8.714;2023-01-25T05:41:17;-16261.94;;;-139.71;80.84
3598;BME280;1813;52.016;8.714;2023-01-25T05:43:51;-16261.94;;;-139.71;80.89
3598;BME280;1813;52.016;8.714;2023-01-25T05:46:27;-16261.94;;;-139.71;80.91
3598;BME280;1813;52.016;8.714;2023-01-25T05:49:04;-16261.94;;;-139.71;80.84
3598;BME280;1813;52.016;8.714;2023-01-25T05:51:38;-16261.94;;;-139.71;81.04
3598;BME280;1813;52.016;8.714;2023-01-25T05:54:14;-16261.94;;;-139.71;81.05
3598;BME280;1813;52.016;8.714;2023-01-25T05:56:54;-16261.94;;;-139.71;80.97
3598;BME280;1813;52.016;8.714;2023-01-25T05:59:28;-16261.94;;;-139.71;80.76
3598;BME280;1813;52.016;8.714;2023-01-25T06:02:03;-16261.94;;;-139.71;80.63
3598;BME280;1813;52.016;8.714;2023-01-25T06:04:40;-16261.94;;;-139.71;80.65
3598;BME280;1813;52.016;8.714;2023-01-25T06:07:14;-16261.94;;;-139.71;80.72
3598;BME280;1813;52.016;8.714;2023-01-25T06:09:48;-16261.94;;;-139.71;80.85
3598;BME280;1813;52.016;8.714;2023-01-25T06:12:22;-16261.94;;;-139.71;80.73
3598;BME280;1813;52.016;8.714;2023-01-25T06:14:57;-16261.94;;;-139.71;80.75
3598;BME280;1813;52.016;8.714;2023-01-25T06:17:31;-16261.94;;;-139.71;80.85
3598;BME280;1813;52.016;8.714;2023-01-25T06:20:26;-16261.94;;;-139.71;81.12
3598;BME280;1813;52.016;8.714;2023-01-25T06:23:09;-16261.94;;;-139.71;81.35
3598;BME280;1813;52.016;8.714;2023-01-25T06:25:42;-16261.94;;;-139.71;81.46
3598;BME280;1813;52.016;8.714;2023-01-25T06:28:16;-16261.94;;;-139.71;81.42
3598;BME280;1813;52.016;8.714;2023-01-25T06:30:50;-16261.94;;;-139.71;81.50
3598;BME280;1813;52.016;8.714;2023-01-25T06:33:25;-16261.94;;;-139.71;81.74
3598;BME280;1813;52.016;8.714;2023-01-25T06:36:04;-16261.94;;;-139.71;81.73
3598;BME280;1813;52.016;8.714;2023-01-25T06:38:38;-16261.94;;;-139.71;81.71
3598;BME280;1813;52.016;8.714;2023-01-25T06:41:12;-16261.94;;;-139.71;81.27
3598;BME280;1813;52.016;8.714;2023-01-25T06:43:49;-16261.94;;;-139.71;80.96
3598;BME280;1813;52.016;8.714;2023-01-25T06:46:23;-16261.94;;;-139.71;80.97
3598;BME280;1813;52.016;8.714;2023-01-25T06:48:57;-16261.94;;;-139.71;80.95
3598;BME280;1813;52.016;8.714;2023-01-25T06:51:33;-16261.94;;;-139.71;80.79
3598;BME280;1813;52.016;8.714;2023-01-25T06:54:07;-16261.94;;;-139.71;80.79
3598;BME280;1813;52.016;8.714;2023-01-25T06:56:40;-16261.94;;;-139.71;80.85
3598;BME280;1813;52.016;8.714;2023-01-25T06:59:14;-16261.94;;;-139.71;80.95
3598;BME280;1813;52.016;8.714;2023-01-25T07:01:48;-16261.94;;;-139.71;80.99
3598;BME280;1813;52.016;8.714;2023-01-25T07:04:22;-16261.94;;;-139.71;81.17
3598;BME280;1813;52.016;8.714;2023-01-25T07:06:59;-16261.94;;;-139.71;81.28
3598;BME280;1813;52.016;8.714;2023-01-25T07:09:33;-16261.94;;;-139.71;81.39
3598;BME280;1813;52.016;8.714;2023-01-25T07:12:07;-16261.94;;;-139.71;81.58
3598;BME280;1813;52.016;8.714;2023-01-25T07:14:41;-16261.94;;;-139.71;81.59
3598;BME280;1813;52.016;8.714;2023-01-25T07:17:17;-16261.94;;;-139.71;81.39
3598;BME280;1813;52.016;8.714;2023-01-25T07:19:50;-16261.94;;;-139.71;81.53
3598;BME280;1813;52.016;8.714;2023-01-25T07:22:27;-16261.94;;;-139.71;81.39
3598;BME280;1813;52.016;8.714;2023-01-25T07:25:00;-16261.94;;;-139.71;81.32
3598;BME280;1813;52.016;8.714;2023-01-25T07:27:36;-16261.94;;;-139.71;81.50
3598;BME280;1813;52.016;8.714;2023-01-25T07:30:10;-16261.94;;;-139.71;81.74
3598;BME280;1813;52.016;8.714;2023-01-25T07:32:45;-16261.94;;;-139.71;81.96
3598;BME280;1813;52.016;8.714;2023-01-25T07:35:18;-16261.94;;;-139.71;82.14
3598;BME280;1813;52.016;8.714;2023-01-25T07:37:55;-16261.94;;;-139.71;82.03
3598;BME280;1813;52.016;8.714;2023-01-25T07:40:29;-16261.94;;;-139.71;81.92
3598;BME280;1813;52.016;8.714;2023-01-25T07:43:03;-16261.94;;;-139.71;81.91
3598;BME280;1813;52.016;8.714;2023-01-25T07:45:37;-16261.94;;;-139.71;82.01
3598;BME280;1813;52.016;8.714;2023-01-25T07:48:14;-16261.94;;;-139.71;82.09
3598;BME280;1813;52.016;8.714;2023-01-25T07:50:48;-16261.94;;;-139.71;82.27
3598;BME280;1813;52.016;8.714;2023-01-25T07:53:43;-16261.94;;;-139.71;82.41
3598;BME280;1813;52.016;8.714;2023-01-25T07:56:17;-16261.94;;;-139.71;82.63
3598;BME280;1813;52.016;8.714;2023-01-25T07:58:52;-16261.94;;;-139.71;82.55
3598;BME280;1813;52.016;8.714;2023-01-25T08:01:27;-16261.94;;;-139.71;82.24
3598;BME280;1813;52.016;8.714;2023-01-25T08:04:02;-16261.94;;;-139.71;82.06
3598;BME280;1813;52.016;8.714;2023-01-25T08:06:37;-16261.94;;;-139.71;81.93
3598;BME280;1813;52.016;8.714;2023-01-25T08:09:15;-16261.94;;;-139.71;81.57
3598;BME280;1813;52.016;8.714;2023-01-25T08:11:49;-16261.94;;;-139.71;81.50
3598;BME280;1813;52.016;8.714;2023-01-25T08:14:23;-16261.94;;;-139.71;81.59
3598;BME280;1813;52.016;8.714;2023-01-25T08:16:57;-16261.94;;;-139.71;81.46
3598;BME280;1813;52.016;8.714;2023-01-25T08:19:31;-16261.94;;;-139.71;81.40
3598;BME280;1813;52.016;8.714;2023-01-25T08:22:06;-16261.94;;;-139.71;81.35
3598;BME280;1813;52.016;8.714;2023-01-25T08:24:45;-16261.94;;;-139.71;81.27
3598;BME280;1813;52.016;8.714;2023-01-25T08:27:19;-16261.94;;;-139.71;81.45
3598;BME280;1813;52.016;8.714;2023-01-25T08:29:54;-16261.94;;;-139.71;81.52
3598;BME280;1813;52.016;8.714;2023-01-25T08:32:27;-16261.94;;;-139.71;81.54
3598;BME280;1813;52.016;8.714;2023-01-25T08:35:01;-16261.94;;;-139.71;81.63
3598;BME280;1813;52.016;8.714;2023-01-25T08:37:35;-16261.94;;;-139.71;81.70
3598;BME280;1813;52.016;8.714;2023-01-25T08:40:13;-16261.94;;;-139.71;81.69
3598;BME280;1813;52.016;8.714;2023-01-25T08:42:47;-16261.94;;;-139.71;81.82
3598;BME280;1813;52.016;8.714;2023-01-25T08:45:21;-16261.94;;;-139.71;81.93
3598;BME280;1813;52.016;8.714;2023-01-25T08:47:55;-16261.94;;;-139.71;82.12
3598;BME280;1813;52.016;8.714;2023-01-25T08:50:30;-16261.94;;;-139.71;82.24
3598;BME280;1813;52.016;8.714;2023-01-25T08:53:04;-16261.94;;;-139.71;82.32
3598;BME280;1813;52.016;8.714;2023-01-25T08:55:41;-16261.94;;;-139.71;82.43
3598;BME280;1813;52.016;8.714;2023-01-25T08:58:16;-16261.94;;;-139.71;82.42
3598;BME280;1813;52.016;8.714;2023-01-25T09:00:51;-16261.94;;;-139.71;82.54
3598;BME280;1813;52.016;8.714;2023-01-25T09:03:25;-16261.94;;;-139.71;82.36
3598;BME280;1813;52.016;8.714;2023-01-25T09:05:59;-16261.94;;;-139.71;82.26
3598;BME280;1813;52.016;8.714;2023-01-25T09:08:33;-16261.94;;;-139.71;82.05
3598;BME280;1813;52.016;8.714;2023-01-25T09:11:12;-16261.94;;;-139.71;81.96
3598;BME280;1813;52.016;8.714;2023-01-25T09:13:46;-16261.94;;;-139.71;82.02
3598;BME280;1813;52.016;8.714;2023-01-25T09:16:21;-16261.94;;;-139.71;82.22
3598;BME280;1813;52.016;8.714;2023-01-25T09:19:01;-16261.94;;;-139.71;82.57
3598;BME280;1813;52.016;8.714;2023-01-25T09:21:35;-16261.94;;;-139.71;82.50
3598;BME280;1813;52.016;8.714;2023-01-25T09:24:09;-16261.94;;;-139.71;82.48
3598;BME280;1813;52.016;8.714;2023-01-25T09:26:45;-16261.94;;;-139.71;82.38
3598;BME280;1813;52.016;8.714;2023-01-25T09:29:19;-16261.94;;;-139.71;82.54
3598;BME280;1813;52.016;8.714;2023-01-25T09:31:53;-16261.94;;;-139.71;82.75
3598;BME280;1813;52.016;8.714;2023-01-25T09:34:48;-16261.94;;;-139.71;82.69
3598;BME280;1813;52.016;8.714;2023-01-25T09:37:22;-16261.94;;;-139.71;82.77
3598;BME280;1813;52.016;8.714;2023-01-25T09:39:56;-16261.94;;;-139.71;82.87
3598;BME280;1813;52.016;8.714;2023-01-25T09:45:42;-16261.94;;;-139.71;82.99
3598;BME280;1813;52.016;8.714;2023-01-25T09:48:24;-16261.94;;;-139.71;83.29
3598;BME280;1813;52.016;8.714;2023-01-25T09:51:14;-16261.94;;;-139.71;83.15
3598;BME280;1813;52.016;8.714;2023-01-25T09:53:52;-16261.94;;;-139.71;82.95
3598;BME280;1813;52.016;8.714;2023-01-25T09:56:29;-16261.94;;;-139.71;82.91
3598;BME280;1813;52.016;8.714;2023-01-25T09:59:09;-16261.94;;;-139.71;82.88
3598;BME280;1813;52.016;8.714;2023-01-25T10:01:50;-16261.94;;;-139.71;83.01
3598;BME280;1813;52.016;8.714;2023-01-25T10:04:29;-16261.94;;;-139.71;83.10
3598;BME280;1813;52.016;8.714;2023-01-25T10:07:17;-16261.94;;;-139.71;83.22
3598;BME280;1813;52.016;8.714;2023-01-25T10:09:56;-16261.94;;;-139.71;83.17
3598;BME280;1813;52.016;8.714;2023-01-25T10:12:35;-16261.94;;;-139.71;83.29
3598;BME280;1813;52.016;8.714;2023-01-25T10:15:17;-16261.94;;;-139.71;83.34
3598;BME280;1813;52.016;8.714;2023-01-25T10:18:00;-16261.94;;;-139.71;82.97
3598;BME280;1813;52.016;8.714;2023-01-25T10:20:41;-16261.94;;;-139.71;82.74
3598;BME280;1813;52.016;8.714;2023-01-25T10:23:44;-16261.94;;;-139.71;82.85
3598;BME280;1813;52.016;8.714;2023-01-25T10:26:25;-16261.94;;;-139.71;83.13
3598;BME280;1813;52.016;8.714;2023-01-25T10:29:04;-16261.94;;;-139.71;83.40
3598;BME280;1813;52.016;8.714;2023-01-25T10:31:46;-16261.94;;;-139.71;83.32
3598;BME280;1813;52.016;8.714;2023-01-25T10:34:30;-16261.94;;;-139.71;83.10
3598;BME280;1813;52.016;8.714;2023-01-25T10:37:11;-16261.94;;;-139.71;82.85
3598;BME280;1813;52.016;8.714;2023-01-25T10:39:53;-16261.94;;;-139.71;82.80
3598;BME280;1813;52.016;8.714;2023-01-25T10:42:32;-16261.94;;;-139.71;82.79
3598;BME280;1813;52.016;8.714;2023-01-25T10:45:11;-16261.94;;;-139.71;82.61
3598;BME280;1813;52.016;8.714;2023-01-25T10:47:47;-16261.94;;;-139.71;82.59
3598;BME280;1813;52.016;8.714;2023-01-25T10:50:43;-16261.94;;;-139.71;82.71
3598;BME280;1813;52.016;8.714;2023-01-25T10:53:27;-16261.94;;;-139.71;82.85
3598;BME280;1813;52.016;8.714;2023-01-25T10:56:10;-16261.94;;;-139.71;83.00
3598;BME280;1813;52.016;8.714;2023-01-25T10:58:50;-16261.94;;;-139.71;83.04
3598;BME280;1813;52.016;8.714;2023-01-25T11:01:26;-16261.94;;;-139.71;83.02
3598;BME280;1813;52.016;8.714;2023-01-25T11:04:03;-16261.94;;;-139.71;83.19
3598;BME280;1813;52.016;8.714;2023-01-25T11:06:57;-16261.94;;;-139.71;83.22
3598;BME280;1813;52.016;8.714;2023-01-25T11:09:37;-16261.94;;;-139.71;83.21
3598;BME280;1813;52.016;8.714;2023-01-25T11:12:16;-16261.94;;;-139.71;83.22
3598;BME280;1813;52.016;8.714;2023-01-25T11:14:51;-16261.94;;;-139.71;83.21
3598;BME280;1813;52.016;8.714;2023-01-25T11:17:26;-16261.94;;;-139.71;83.16
3598;BME280;1813;52.016;8.714;2023-01-25T11:20:14;-16261.94;;;-139.71;82.97
3598;BME280;1813;52.016;8.714;2023-01-25T11:22:54;-16261.94;;;-139.71;82.99
3598;BME280;1813;52.016;8.714;2023-01-25T11:25:30;-16261.94;;;-139.71;83.08
3598;BME280;1813;52.016;8.714;2023-01-25T11:28:15;-16261.94;;;-139.71;83.14
3598;BME280;1813;52.016;8.714;2023-01-25T11:30:51;-16261.94;;;-139.71;83.23
3598;BME280;1813;52.016;8.714;2023-01-25T11:33:25;-16261.94;;;-139.71;83.35
3598;BME280;1813;52.016;8.714;2023-01-25T11:36:12;-16261.94;;;-139.71;83.41
3598;BME280;1813;52.016;8.714;2023-01-25T11:41:58;-16261.94;;;-139.71;83.32
3598;BME280;1813;52.016;8.714;2023-01-25T11:45:00;-16261.94;;;-139.71;83.26
3598;BME280;1813;52.016;8.714;2023-01-25T11:47:43;-16261.94;;;-139.71;83.24
3598;BME280;1813;52.016;8.714;2023-01-25T11:50:29;-16261.94;;;-139.71;83.07
3598;BME280;1813;52.016;8.714;2023-01-25T11:53:22;-16261.94;;;-139.71;82.87
3598;BME280;1813;52.016;8.714;2023-01-25T11:56:09;-16261.94;;;-139.71;83.04
3598;BME280;1813;52.016;8.714;2023-01-25T11:59:17;-16261.94;;;-139.71;83.01
3598;BME280;1813;52.016;8.714;2023-01-25T12:02:08;-16261.94;;;-139.71;82.73
3598;BME280;1813;52.016;8.714;2023-01-25T12:05:08;-16261.94;;;-139.71;82.46
3598;BME280;1813;52.016;8.714;2023-01-25T12:07:53;-16261.94;;;-139.71;82.37
3598;BME280;1813;52.016;8.714;2023-01-25T12:10:35;-16261.94;;;-139.71;82.23
3598;BME280;1813;52.016;8.714;2023-01-25T12:13:17;-16261.94;;;-139.71;82.35
3598;BME280;1813;52.016;8.714;2023-01-25T12:16:12;-16261.94;;;-139.71;82.38
3598;BME280;1813;52.016;8.714;2023-01-25T12:19:05;-16261.94;;;-139.71;82.49
3598;BME280;1813;52.016;8.714;2023-01-25T12:22:02;-16261.94;;;-139.71;82.43
3598;BME280;1813;52.016;8.714;2023-01-25T12:24:43;-16261.94;;;-139.71;82.71
3598;BME280;1813;52.016;8.714;2023-01-25T12:27:35;-16261.94;;;-139.71;82.70
3598;BME280;1813;52.016;8.714;2023-01-25T12:30:21;-16261.94;;;-139.71;82.84
3598;BME280;1813;52.016;8.714;2023-01-25T12:32:58;-16261.94;;;-139.71;82.99
3598;BME280;1813;52.016;8.714;2023-01-25T12:35:36;-16261.94;;;-139.71;82.97
3598;BME280;1813;52.016;8.714;2023-01-25T12:38:14;-16261.94;;;-139.71;82.92
3598;BME280;1813;52.016;8.714;2023-01-25T12:40:55;-16261.94;;;-139.71;82.71
3598;BME280;1813;52.016;8.714;2023-01-25T12:43:36;-16261.94;;;-139.71;82.53
3598;BME280;1813;52.016;8.714;2023-01-25T12:46:21;-16261.94;;;-139.71;82.57
3598;BME280;1813;52.016;8.714;2023-01-25T12:49:00;-16261.94;;;-139.71;82.53
3598;BME280;1813;52.016;8.714;2023-01-25T12:51:39;-16261.94;;;-139.71;82.41
3598;BME280;1813;52.016;8.714;2023-01-25T12:54:19;-16261.94;;;-139.71;82.41
3598;BME280;1813;52.016;8.714;2023-01-25T12:57:02;-16261.94;;;-139.71;82.55
3598;BME280;1813;52.016;8.714;2023-01-25T12:59:46;-16261.94;;;-139.71;82.59
3598;BME280;1813;52.016;8.714;2023-01-25T13:02:52;-16261.94;;;-139.71;82.69
3598;BME280;1813;52.016;8.714;2023-01-25T13:05:31;-16261.94;;;-139.71;82.81
3598;BME280;1813;52.016;8.714;2023-01-25T13:08:16;-16261.94;;;-139.71;82.85
3598;BME280;1813;52.016;8.714;2023-01-25T13:11:09;-16261.94;;;-139.71;82.91
3598;BME280;1813;52.016;8.714;2023-01-25T13:13:45;-16261.94;;;-139.71;83.03
3598;BME280;1813;52.016;8.714;2023-01-25T13:16:30;-16261.94;;;-139.71;82.89
3598;BME280;1813;52.016;8.714;2023-01-25T13:19:19;-16261.94;;;-139.71;83.00
3598;BME280;1813;52.016;8.714;2023-01-25T13:21:55;-16261.94;;;-139.71;83.07
3598;BME280;1813;52.016;8.714;2023-01-25T13:24:30;-16261.94;;;-139.71;83.29
3598;BME280;1813;52.016;8.714;2023-01-25T13:27:23;-16261.94;;;-139.71;83.44
3598;BME280;1813;52.016;8.714;2023-01-25T13:29:59;-16261.94;;;-139.71;83.42
3598;BME280;1813;52.016;8.714;2023-01-25T13:32:52;-16261.94;;;-139.71;83.46
3598;BME280;1813;52.016;8.714;2023-01-25T13:35:40;-16261.94;;;-139.71;83.37
3598;BME280;1813;52.016;8.714;2023-01-25T13:38:38;-16261.94;;;-139.71;83.57
3598;BME280;1813;52.016;8.714;2023-01-25T13:41:15;-16261.94;;;-139.71;83.47
3598;BME280;1813;52.016;8.714;2023-01-25T13:44:07;-16261.94;;;-139.71;83.64
3598;BME280;1813;52.016;8.714;2023-01-25T13:46:45;-16261.94;;;-139.71;83.84
3598;BME280;1813;52.016;8.714;2023-01-25T13:49:22;-16261.94;;;-139.71;83.74
3598;BME280;1813;52.016;8.714;2023-01-25T13:52:02;-16261.94;;;-139.71;83.48
3598;BME280;1813;52.016;8.714;2023-01-25T13:54:41;-16261.94;;;-139.71;83.40